sensor_id;sensor_type;location;lat;lon;timestamp;pressure;altitude;pressure_sealevel;temperature;humidity
72560;BME280;62987;52.382;9.752;2024-02-21T00:00:58;101365.13;;;10.64;100.00
72560;BME280;62987;52.382;9.752;2024-02-21T00:03:27;101374.47;;;10.77;100.00
72560;BME280;62987;52.382;9.752;2024-02-21T00:05:55;101373.31;;;10.58;100.00
72560;BME280;62987;52.382;9.752;2024-02-21T00:08:25;101371.47;;;10.60;100.00
72560;BME280;62987;52.382;9.752;2024-02-21T00:10:56;101375.88;;;10.61;100.00
72560;BME280;62987;52.382;9.752;2024-02-21T00:13:36;101363.25;;;10.40;100.00
72560;BME280;62987;52.382;9.752;2024-02-21T00:16:05;101369.09;;;10.79;100.00
72560;BME280;62987;52.382;9.752;2024-02-21T00:18:34;101361.34;;;10.71;100.00
72560;BME280;62987;52.382;9.752;2024-02-21T00:21:02;101352.34;;;10.49;100.00
72560;BME280;62987;52.382;9.752;2024-02-21T00:23:32;101349.59;;;10.78;100.00
72560;BME280;62987;52.382;9.752;2024-02-21T00:26:00;101349.50;;;10.81;100.00
72560;BME280;62987;52.382;9.752;2024-02-21T00:28:29;101350.94;;;10.64;100.00
72560;BME280;62987;52.382;9.752;2024-02-21T00:30:57;101351.53;;;10.73;100.00
72560;BME280;62987;52.382;9.752;2024-02-21T00:33:25;101342.53;;;10.77;100.00
72560;BME280;62987;52.382;9.752;2024-02-21T00:35:54;101338.09;;;10.78;100.00
72560;BME280;62987;52.382;9.752;2024-02-21T00:38:22;101344.28;;;10.78;100.00
72560;BME280;62987;52.382;9.752;2024-02-21T00:40:52;101329.94;;;10.56;100.00
72560;BME280;62987;52.382;9.752;2024-02-21T00:43:20;101328.50;;;10.72;100.00
72560;BME280;62987;52.382;9.752;2024-02-21T00:45:51;101328.63;;;10.69;100.00
72560;BME280;62987;52.382;9.752;2024-02-21T00:48:19;101332.50;;;10.59;100.00
72560;BME280;62987;52.382;9.752;2024-02-21T00:50:47;101330.69;;;10.60;100.00
72560;BME280;62987;52.382;9.752;2024-02-21T00:53:16;101325.91;;;10.71;100.00
72560;BME280;62987;52.382;9.752;2024-02-21T00:55:44;101309.19;;;10.67;100.00
72560;BME280;62987;52.382;9.752;2024-02-21T00:58:14;101312.16;;;10.57;100.00
72560;BME280;62987;52.382;9.752;2024-02-21T01:00:42;101300.94;;;10.75;100.00
72560;BME280;62987;52.382;9.752;2024-02-21T01:03:10;101296.50;;;10.75;100.00
72560;BME280;62987;52.382;9.752;2024-02-21T01:05:39;101292.38;;;10.65;100.00
72560;BME280;62987;52.382;9.752;2024-02-21T01:08:07;101292.84;;;10.78;100.00
72560;BME280;62987;52.382;9.752;2024-02-21T01:10:36;101293.63;;;10.55;100.00
72560;BME280;62987;52.382;9.752;2024-02-21T01:13:04;101295.31;;;10.84;100.00
72560;BME280;62987;52.382;9.752;2024-02-21T01:15:34;101286.41;;;10.85;100.00
72560;BME280;62987;52.382;9.752;2024-02-21T01:18:03;101275.59;;;10.63;100.00
72560;BME280;62987;52.382;9.752;2024-02-21T01:20:32;101284.59;;;10.59;100.00
72560;BME280;62987;52.382;9.752;2024-02-21T01:23:00;101277.97;;;10.72;100.00
72560;BME280;62987;52.382;9.752;2024-02-21T01:25:29;101280.13;;;10.88;100.00
72560;BME280;62987;52.382;9.752;2024-02-21T01:27:57;101271.28;;;11.12;100.00
72560;BME280;62987;52.382;9.752;2024-02-21T01:30:25;101271.66;;;11.01;100.00
72560;BME280;62987;52.382;9.752;2024-02-21T01:32:54;101265.78;;;10.92;100.00
72560;BME280;62987;52.382;9.752;2024-02-21T01:35:23;101269.06;;;11.00;100.00
72560;BME280;62987;52.382;9.752;2024-02-21T01:37:51;101267.22;;;10.75;100.00
72560;BME280;62987;52.382;9.752;2024-02-21T01:40:19;101274.47;;;10.97;100.00
72560;BME280;62987;52.382;9.752;2024-02-21T01:42:48;101268.47;;;10.90;100.00
72560;BME280;62987;52.382;9.752;2024-02-21T01:45:16;101250.69;;;11.17;100.00
72560;BME280;62987;52.382;9.752;2024-02-21T01:47:45;101258.34;;;11.01;100.00
72560;BME280;62987;52.382;9.752;2024-02-21T01:50:15;101256.44;;;11.05;100.00
72560;BME280;62987;52.382;9.752;2024-02-21T01:52:46;101242.91;;;10.86;100.00
72560;BME280;62987;52.382;9.752;2024-02-21T01:55:17;101240.16;;;11.14;100.00
72560;BME280;62987;52.382;9.752;2024-02-21T01:57:45;101248.59;;;11.02;100.00
72560;BME280;62987;52.382;9.752;2024-02-21T02:00:15;101246.09;;;10.96;100.00
72560;BME280;62987;52.382;9.752;2024-02-21T02:02:45;101235.84;;;11.10;100.00
72560;BME280;62987;52.382;9.752;2024-02-21T02:05:15;101232.69;;;10.99;100.00
72560;BME280;62987;52.382;9.752;2024-02-21T02:07:45;101242.22;;;11.06;100.00
72560;BME280;62987;52.382;9.752;2024-02-21T02:10:14;101224.19;;;11.14;100.00
72560;BME280;62987;52.382;9.752;2024-02-21T02:12:42;101220.88;;;11.07;100.00
72560;BME280;62987;52.382;9.752;2024-02-21T02:15:11;101230.31;;;10.91;100.00
72560;BME280;62987;52.382;9.752;2024-02-21T02:17:39;101230.25;;;10.93;100.00
72560;BME280;62987;52.382;9.752;2024-02-21T02:20:08;101214.38;;;10.90;100.00
72560;BME280;62987;52.382;9.752;2024-02-21T02:22:39;101216.56;;;10.78;100.00
72560;BME280;62987;52.382;9.752;2024-02-21T02:25:16;101208.53;;;10.80;100.00
72560;BME280;62987;52.382;9.752;2024-02-21T02:27:44;101197.31;;;10.70;100.00
72560;BME280;62987;52.382;9.752;2024-02-21T02:30:14;101191.66;;;10.81;100.00
72560;BME280;62987;52.382;9.752;2024-02-21T02:32:44;101198.19;;;10.96;100.00
72560;BME280;62987;52.382;9.752;2024-02-21T02:35:13;101179.88;;;10.88;100.00
72560;BME280;62987;52.382;9.752;2024-02-21T02:37:47;101185.75;;;11.21;100.00
72560;BME280;62987;52.382;9.752;2024-02-21T02:40:18;101182.59;;;11.10;100.00
72560;BME280;62987;52.382;9.752;2024-02-21T02:42:46;101175.72;;;11.04;100.00
72560;BME280;62987;52.382;9.752;2024-02-21T02:45:16;101173.50;;;10.67;100.00
72560;BME280;62987;52.382;9.752;2024-02-21T02:47:44;101171.09;;;10.85;100.00
72560;BME280;62987;52.382;9.752;2024-02-21T02:50:14;101158.53;;;11.13;100.00
72560;BME280;62987;52.382;9.752;2024-02-21T02:52:42;101159.31;;;10.92;100.00
72560;BME280;62987;52.382;9.752;2024-02-21T02:55:11;101156.13;;;11.07;100.00
72560;BME280;62987;52.382;9.752;2024-02-21T02:57:40;101159.47;;;11.12;100.00
72560;BME280;62987;52.382;9.752;2024-02-21T03:00:11;101148.78;;;11.13;100.00
72560;BME280;62987;52.382;9.752;2024-02-21T03:02:41;101149.88;;;11.08;100.00
72560;BME280;62987;52.382;9.752;2024-02-21T03:05:14;101139.56;;;10.74;100.00
72560;BME280;62987;52.382;9.752;2024-02-21T03:07:43;101143.03;;;10.76;100.00
72560;BME280;62987;52.382;9.752;2024-02-21T03:10:13;101128.16;;;10.95;100.00
72560;BME280;62987;52.382;9.752;2024-02-21T03:12:45;101124.03;;;10.87;100.00
72560;BME280;62987;52.382;9.752;2024-02-21T03:15:14;101114.38;;;10.59;100.00
72560;BME280;62987;52.382;9.752;2024-02-21T03:17:42;101110.34;;;10.72;100.00
72560;BME280;62987;52.382;9.752;2024-02-21T03:20:11;101104.59;;;10.85;100.00
72560;BME280;62987;52.382;9.752;2024-02-21T03:22:40;101098.94;;;10.94;100.00
72560;BME280;62987;52.382;9.752;2024-02-21T03:25:09;101081.72;;;10.79;100.00
72560;BME280;62987;52.382;9.752;2024-02-21T03:27:38;101065.72;;;11.04;100.00
72560;BME280;62987;52.382;9.752;2024-02-21T03:30:09;101061.31;;;11.03;100.00
72560;BME280;62987;52.382;9.752;2024-02-21T03:32:37;101066.56;;;11.04;100.00
72560;BME280;62987;52.382;9.752;2024-02-21T03:35:06;101066.88;;;10.97;100.00
72560;BME280;62987;52.382;9.752;2024-02-21T03:37:35;101066.13;;;10.93;100.00
72560;BME280;62987;52.382;9.752;2024-02-21T03:40:07;101064.38;;;10.92;100.00
72560;BME280;62987;52.382;9.752;2024-02-21T03:42:36;101050.22;;;10.68;100.00
72560;BME280;62987;52.382;9.752;2024-02-21T03:45:05;101053.44;;;10.76;100.00
72560;BME280;62987;52.382;9.752;2024-02-21T03:47:35;101039.69;;;10.89;100.00
72560;BME280;62987;52.382;9.752;2024-02-21T03:50:04;101064.84;;;10.80;100.00
72560;BME280;62987;52.382;9.752;2024-02-21T03:52:32;101070.63;;;10.91;100.00
72560;BME280;62987;52.382;9.752;2024-02-21T03:55:01;101059.81;;;10.96;100.00
72560;BME280;62987;52.382;9.752;2024-02-21T03:57:29;101066.34;;;10.87;100.00
72560;BME280;62987;52.382;9.752;2024-02-21T03:59:58;101063.16;;;10.77;100.00
72560;BME280;62987;52.382;9.752;2024-02-21T04:02:26;101081.78;;;10.77;100.00
72560;BME280;62987;52.382;9.752;2024-02-21T04:04:56;101074.72;;;10.76;100.00
72560;BME280;62987;52.382;9.752;2024-02-21T04:07:25;101090.94;;;11.17;100.00
72560;BME280;62987;52.382;9.752;2024-02-21T04:09:53;101100.31;;;10.80;100.00
72560;BME280;62987;52.382;9.752;2024-02-21T04:12:21;101097.19;;;10.93;100.00
72560;BME280;62987;52.382;9.752;2024-02-21T04:14:50;101117.28;;;11.01;100.00
72560;BME280;62987;52.382;9.752;2024-02-21T04:17:18;101111.19;;;10.98;100.00
72560;BME280;62987;52.382;9.752;2024-02-21T04:19:46;101114.78;;;10.97;100.00
72560;BME280;62987;52.382;9.752;2024-02-21T04:22:16;101105.50;;;10.83;100.00
72560;BME280;62987;52.382;9.752;2024-02-21T04:24:45;101086.53;;;10.93;100.00
72560;BME280;62987;52.382;9.752;2024-02-21T04:27:13;101097.09;;;10.71;100.00
72560;BME280;62987;52.382;9.752;2024-02-21T04:29:41;101097.66;;;10.80;100.00
72560;BME280;62987;52.382;9.752;2024-02-21T04:32:10;101101.56;;;10.70;100.00
72560;BME280;62987;52.382;9.752;2024-02-21T04:34:38;101086.22;;;10.77;100.00
72560;BME280;62987;52.382;9.752;2024-02-21T04:37:09;101101.09;;;10.82;100.00
72560;BME280;62987;52.382;9.752;2024-02-21T04:39:38;101096.31;;;10.92;100.00
72560;BME280;62987;52.382;9.752;2024-02-21T04:42:07;101100.06;;;11.10;100.00
72560;BME280;62987;52.382;9.752;2024-02-21T04:44:35;101097.41;;;10.87;100.00
72560;BME280;62987;52.382;9.752;2024-02-21T04:47:04;101096.72;;;11.05;100.00
72560;BME280;62987;52.382;9.752;2024-02-21T04:49:32;101098.47;;;11.06;100.00
72560;BME280;62987;52.382;9.752;2024-02-21T04:52:01;101099.25;;;10.85;100.00
72560;BME280;62987;52.382;9.752;2024-02-21T04:54:29;101100.91;;;10.89;100.00
72560;BME280;62987;52.382;9.752;2024-02-21T04:56:59;101099.97;;;11.13;100.00
72560;BME280;62987;52.382;9.752;2024-02-21T04:59:27;101103.75;;;11.07;100.00
72560;BME280;62987;52.382;9.752;2024-02-21T05:01:56;101105.41;;;11.10;100.00
72560;BME280;62987;52.382;9.752;2024-02-21T05:04:25;101103.34;;;10.95;100.00
72560;BME280;62987;52.382;9.752;2024-02-21T05:06:54;101102.97;;;10.80;100.00
72560;BME280;62987;52.382;9.752;2024-02-21T05:09:23;101099.00;;;10.67;100.00
72560;BME280;62987;52.382;9.752;2024-02-21T05:11:51;101097.09;;;10.71;100.00
72560;BME280;62987;52.382;9.752;2024-02-21T05:14:21;101092.09;;;10.87;100.00
72560;BME280;62987;52.382;9.752;2024-02-21T05:16:49;101086.59;;;10.68;100.00
72560;BME280;62987;52.382;9.752;2024-02-21T05:19:18;101098.19;;;10.65;100.00
72560;BME280;62987;52.382;9.752;2024-02-21T05:21:48;101081.88;;;10.99;100.00
72560;BME280;62987;52.382;9.752;2024-02-21T05:24:17;101070.81;;;10.87;100.00
72560;BME280;62987;52.382;9.752;2024-02-21T05:26:45;101078.88;;;10.60;100.00
72560;BME280;62987;52.382;9.752;2024-02-21T05:29:13;101079.63;;;10.89;100.00
72560;BME280;62987;52.382;9.752;2024-02-21T05:31:58;101069.75;;;10.67;100.00
72560;BME280;62987;52.382;9.752;2024-02-21T05:34:27;101077.34;;;10.78;100.00
72560;BME280;62987;52.382;9.752;2024-02-21T05:36:55;101074.94;;;10.70;100.00
72560;BME280;62987;52.382;9.752;2024-02-21T05:39:24;101074.94;;;10.95;100.00
72560;BME280;62987;52.382;9.752;2024-02-21T05:41:53;101072.91;;;11.02;100.00
72560;BME280;62987;52.382;9.752;2024-02-21T05:44:21;101068.84;;;10.92;100.00
72560;BME280;62987;52.382;9.752;2024-02-21T05:46:50;101082.69;;;10.53;100.00
72560;BME280;62987;52.382;9.752;2024-02-21T05:49:19;101077.34;;;10.53;100.00
72560;BME280;62987;52.382;9.752;2024-02-21T05:51:48;101082.88;;;10.72;100.00
72560;BME280;62987;52.382;9.752;2024-02-21T05:54:17;101071.59;;;10.65;100.00
72560;BME280;62987;52.382;9.752;2024-02-21T05:56:45;101074.44;;;10.84;100.00
72560;BME280;62987;52.382;9.752;2024-02-21T05:59:14;101069.28;;;10.56;100.00
72560;BME280;62987;52.382;9.752;2024-02-21T06:01:42;101069.31;;;10.79;100.00
72560;BME280;62987;52.382;9.752;2024-02-21T06:04:11;101075.41;;;10.58;100.00
72560;BME280;62987;52.382;9.752;2024-02-21T06:06:41;101068.78;;;10.45;100.00
72560;BME280;62987;52.382;9.752;2024-02-21T06:09:10;101072.53;;;10.39;100.00
72560;BME280;62987;52.382;9.752;2024-02-21T06:11:38;101055.34;;;10.50;100.00
72560;BME280;62987;52.382;9.752;2024-02-21T06:14:09;101060.66;;;10.50;100.00
72560;BME280;62987;52.382;9.752;2024-02-21T06:16:37;101054.75;;;10.65;100.00
72560;BME280;62987;52.382;9.752;2024-02-21T06:22:41;101052.94;;;10.67;100.00
72560;BME280;62987;52.382;9.752;2024-02-21T06:25:10;101048.84;;;10.81;100.00
72560;BME280;62987;52.382;9.752;2024-02-21T06:27:38;101043.66;;;10.77;100.00
72560;BME280;62987;52.382;9.752;2024-02-21T06:30:08;101043.38;;;10.85;100.00
72560;BME280;62987;52.382;9.752;2024-02-21T06:32:36;101042.78;;;10.53;100.00
72560;BME280;62987;52.382;9.752;2024-02-21T06:35:05;101039.97;;;10.81;100.00
72560;BME280;62987;52.382;9.752;2024-02-21T06:37:34;101039.22;;;10.77;100.00
72560;BME280;62987;52.382;9.752;2024-02-21T06:40:06;101039.44;;;10.71;100.00
72560;BME280;62987;52.382;9.752;2024-02-21T06:42:34;101041.41;;;10.66;100.00
72560;BME280;62987;52.382;9.752;2024-02-21T06:45:03;101044.84;;;10.93;100.00
72560;BME280;62987;52.382;9.752;2024-02-21T06:47:32;101044.53;;;10.77;100.00
72560;BME280;62987;52.382;9.752;2024-02-21T06:50:00;101042.69;;;10.79;100.00
72560;BME280;62987;52.382;9.752;2024-02-21T06:52:29;101036.28;;;10.85;100.00
72560;BME280;62987;52.382;9.752;2024-02-21T06:54:58;101036.66;;;10.51;100.00
72560;BME280;62987;52.382;9.752;2024-02-21T06:57:28;101048.34;;;10.70;100.00
72560;BME280;62987;52.382;9.752;2024-02-21T06:59:57;101048.25;;;10.73;100.00
72560;BME280;62987;52.382;9.752;2024-02-21T07:02:25;101047.84;;;10.61;100.00
72560;BME280;62987;52.382;9.752;2024-02-21T07:04:54;101047.72;;;10.39;100.00
72560;BME280;62987;52.382;9.752;2024-02-21T07:07:22;101044.16;;;10.63;100.00
72560;BME280;62987;52.382;9.752;2024-02-21T07:09:50;101052.69;;;10.73;100.00
72560;BME280;62987;52.382;9.752;2024-02-21T07:12:20;101041.19;;;10.72;100.00
72560;BME280;62987;52.382;9.752;2024-02-21T07:14:50;101048.47;;;10.67;100.00
72560;BME280;62987;52.382;9.752;2024-02-21T07:17:19;101049.13;;;10.74;100.00
72560;BME280;62987;52.382;9.752;2024-02-21T07:19:47;101035.63;;;10.78;100.00
72560;BME280;62987;52.382;9.752;2024-02-21T07:22:15;101037.16;;;10.62;100.00
72560;BME280;62987;52.382;9.752;2024-02-21T07:24:44;101037.38;;;10.79;100.00
72560;BME280;62987;52.382;9.752;2024-02-21T07:27:15;101033.78;;;10.80;100.00
72560;BME280;62987;52.382;9.752;2024-02-21T07:29:44;101038.81;;;10.88;100.00
72560;BME280;62987;52.382;9.752;2024-02-21T07:32:17;101036.72;;;10.73;100.00
72560;BME280;62987;52.382;9.752;2024-02-21T07:34:45;101048.66;;;10.86;100.00
72560;BME280;62987;52.382;9.752;2024-02-21T07:37:14;101029.66;;;10.72;100.00
72560;BME280;62987;52.382;9.752;2024-02-21T07:39:42;101038.81;;;10.65;100.00
72560;BME280;62987;52.382;9.752;2024-02-21T07:42:10;101040.66;;;10.63;100.00
72560;BME280;62987;52.382;9.752;2024-02-21T07:44:39;101047.47;;;10.70;100.00
72560;BME280;62987;52.382;9.752;2024-02-21T07:47:07;101048.88;;;11.03;100.00
72560;BME280;62987;52.382;9.752;2024-02-21T07:49:43;101053.03;;;11.34;100.00
72560;BME280;62987;52.382;9.752;2024-02-21T07:52:11;101053.41;;;11.23;100.00
72560;BME280;62987;52.382;9.752;2024-02-21T07:54:40;101045.50;;;11.43;100.00
72560;BME280;62987;52.382;9.752;2024-02-21T07:57:09;101043.50;;;11.05;100.00
72560;BME280;62987;52.382;9.752;2024-02-21T07:59:37;101042.72;;;11.25;100.00
72560;BME280;62987;52.382;9.752;2024-02-21T08:02:05;101035.94;;;11.16;100.00
72560;BME280;62987;52.382;9.752;2024-02-21T08:04:35;101035.94;;;11.16;100.00
72560;BME280;62987;52.382;9.752;2024-02-21T08:07:05;101039.44;;;11.18;100.00
72560;BME280;62987;52.382;9.752;2024-02-21T08:09:33;101039.19;;;11.24;100.00
72560;BME280;62987;52.382;9.752;2024-02-21T08:12:02;101039.31;;;11.21;100.00
72560;BME280;62987;52.382;9.752;2024-02-21T08:14:30;101036.47;;;11.26;100.00
72560;BME280;62987;52.382;9.752;2024-02-21T08:16:59;101035.59;;;11.25;100.00
72560;BME280;62987;52.382;9.752;2024-02-21T08:19:28;101043.44;;;11.28;100.00
72560;BME280;62987;52.382;9.752;2024-02-21T08:21:56;101042.19;;;11.38;100.00
72560;BME280;62987;52.382;9.752;2024-02-21T08:24:26;101033.50;;;11.33;100.00
72560;BME280;62987;52.382;9.752;2024-02-21T08:26:54;101032.19;;;11.43;100.00
72560;BME280;62987;52.382;9.752;2024-02-21T08:29:22;101023.97;;;11.28;100.00
72560;BME280;62987;52.382;9.752;2024-02-21T08:31:51;101025.28;;;11.39;100.00
72560;BME280;62987;52.382;9.752;2024-02-21T08:34:19;101023.88;;;11.29;100.00
72560;BME280;62987;52.382;9.752;2024-02-21T08:36:48;101013.34;;;11.48;100.00
72560;BME280;62987;52.382;9.752;2024-02-21T08:39:16;101015.16;;;11.47;100.00
72560;BME280;62987;52.382;9.752;2024-02-21T08:41:46;101015.91;;;11.51;100.00
72560;BME280;62987;52.382;9.752;2024-02-21T08:44:23;101006.34;;;11.89;100.00
72560;BME280;62987;52.382;9.752;2024-02-21T08:46:53;101010.69;;;11.70;100.00
72560;BME280;62987;52.382;9.752;2024-02-21T08:49:22;101003.41;;;11.73;100.00
72560;BME280;62987;52.382;9.752;2024-02-21T08:52:00;100999.22;;;11.89;100.00
72560;BME280;62987;52.382;9.752;2024-02-21T08:54:29;100996.22;;;11.77;100.00
72560;BME280;62987;52.382;9.752;2024-02-21T08:56:59;100988.50;;;12.11;100.00
72560;BME280;62987;52.382;9.752;2024-02-21T08:59:28;100983.56;;;11.82;100.00
72560;BME280;62987;52.382;9.752;2024-02-21T09:01:56;100986.22;;;12.02;100.00
72560;BME280;62987;52.382;9.752;2024-02-21T09:04:25;100987.38;;;12.56;100.00
72560;BME280;62987;52.382;9.752;2024-02-21T09:06:53;100982.44;;;12.47;100.00
72560;BME280;62987;52.382;9.752;2024-02-21T09:09:22;100977.94;;;12.28;100.00
72560;BME280;62987;52.382;9.752;2024-02-21T09:11:54;100973.16;;;12.36;100.00
72560;BME280;62987;52.382;9.752;2024-02-21T09:14:24;100974.59;;;12.44;100.00
72560;BME280;62987;52.382;9.752;2024-02-21T09:16:52;100975.84;;;12.74;100.00
72560;BME280;62987;52.382;9.752;2024-02-21T09:19:23;100974.00;;;12.76;100.00
72560;BME280;62987;52.382;9.752;2024-02-21T09:21:51;100980.72;;;12.46;100.00
72560;BME280;62987;52.382;9.752;2024-02-21T09:24:20;100976.31;;;12.45;100.00
72560;BME280;62987;52.382;9.752;2024-02-21T09:26:48;100977.13;;;12.47;100.00
72560;BME280;62987;52.382;9.752;2024-02-21T09:29:17;100971.31;;;12.76;100.00
72560;BME280;62987;52.382;9.752;2024-02-21T09:31:48;100967.91;;;12.91;100.00
72560;BME280;62987;52.382;9.752;2024-02-21T09:34:17;100962.56;;;12.72;100.00
72560;BME280;62987;52.382;9.752;2024-02-21T09:36:45;100947.34;;;12.93;100.00
72560;BME280;62987;52.382;9.752;2024-02-21T09:39:14;100946.75;;;13.05;100.00
72560;BME280;62987;52.382;9.752;2024-02-21T09:41:48;100952.03;;;13.07;100.00
72560;BME280;62987;52.382;9.752;2024-02-21T09:44:19;100954.50;;;12.93;100.00
72560;BME280;62987;52.382;9.752;2024-02-21T09:46:52;100958.69;;;12.61;100.00
72560;BME280;62987;52.382;9.752;2024-02-21T09:49:29;100948.88;;;12.80;100.00
72560;BME280;62987;52.382;9.752;2024-02-21T09:52:01;100954.94;;;13.21;100.00
72560;BME280;62987;52.382;9.752;2024-02-21T09:54:30;100950.31;;;12.68;100.00
72560;BME280;62987;52.382;9.752;2024-02-21T09:57:01;100959.41;;;12.83;100.00
72560;BME280;62987;52.382;9.752;2024-02-21T09:59:31;100955.06;;;12.99;100.00
72560;BME280;62987;52.382;9.752;2024-02-21T10:02:01;100957.56;;;12.46;100.00
72560;BME280;62987;52.382;9.752;2024-02-21T10:04:31;100955.59;;;12.70;100.00
72560;BME280;62987;52.382;9.752;2024-02-21T10:07:00;100949.88;;;12.96;100.00
72560;BME280;62987;52.382;9.752;2024-02-21T10:09:29;100951.47;;;12.63;100.00
72560;BME280;62987;52.382;9.752;2024-02-21T10:12:07;100949.88;;;12.77;100.00
72560;BME280;62987;52.382;9.752;2024-02-21T10:14:36;100947.59;;;12.89;100.00
72560;BME280;62987;52.382;9.752;2024-02-21T10:17:06;100955.06;;;12.62;100.00
72560;BME280;62987;52.382;9.752;2024-02-21T10:19:38;100931.63;;;12.87;100.00
72560;BME280;62987;52.382;9.752;2024-02-21T10:22:08;100928.22;;;12.83;100.00
72560;BME280;62987;52.382;9.752;2024-02-21T10:24:37;100927.66;;;12.77;100.00
72560;BME280;62987;52.382;9.752;2024-02-21T10:27:09;100925.25;;;13.08;100.00
72560;BME280;62987;52.382;9.752;2024-02-21T10:29:40;100916.81;;;13.17;100.00
72560;BME280;62987;52.382;9.752;2024-02-21T10:32:11;100917.66;;;13.54;100.00
72560;BME280;62987;52.382;9.752;2024-02-21T10:34:41;100920.16;;;13.57;100.00
72560;BME280;62987;52.382;9.752;2024-02-21T10:37:11;100906.25;;;13.33;100.00
72560;BME280;62987;52.382;9.752;2024-02-21T10:39:41;100916.41;;;12.89;100.00
72560;BME280;62987;52.382;9.752;2024-02-21T10:42:11;100905.13;;;13.01;100.00
72560;BME280;62987;52.382;9.752;2024-02-21T10:44:40;100901.47;;;13.40;100.00
72560;BME280;62987;52.382;9.752;2024-02-21T10:47:12;100881.88;;;13.74;100.00
72560;BME280;62987;52.382;9.752;2024-02-21T10:49:44;100879.00;;;14.27;100.00
72560;BME280;62987;52.382;9.752;2024-02-21T10:52:21;100876.84;;;13.50;100.00
72560;BME280;62987;52.382;9.752;2024-02-21T10:54:56;100871.34;;;13.71;100.00
72560;BME280;62987;52.382;9.752;2024-02-21T10:57:27;100877.25;;;13.60;100.00
72560;BME280;62987;52.382;9.752;2024-02-21T10:59:59;100871.81;;;13.79;100.00
72560;BME280;62987;52.382;9.752;2024-02-21T11:02:29;100860.16;;;14.93;100.00
72560;BME280;62987;52.382;9.752;2024-02-21T11:04:59;100860.94;;;14.63;100.00
72560;BME280;62987;52.382;9.752;2024-02-21T11:07:28;100861.66;;;14.34;100.00
72560;BME280;62987;52.382;9.752;2024-02-21T11:09:59;100845.59;;;14.34;100.00
72560;BME280;62987;52.382;9.752;2024-02-21T11:12:27;100846.16;;;13.92;100.00
72560;BME280;62987;52.382;9.752;2024-02-21T11:15:04;100843.31;;;14.91;100.00
72560;BME280;62987;52.382;9.752;2024-02-21T11:17:34;100841.53;;;14.11;100.00
72560;BME280;62987;52.382;9.752;2024-02-21T11:20:16;100826.22;;;14.77;100.00
72560;BME280;62987;52.382;9.752;2024-02-21T11:22:45;100818.81;;;15.12;100.00
72560;BME280;62987;52.382;9.752;2024-02-21T11:25:21;100816.19;;;14.65;100.00
72560;BME280;62987;52.382;9.752;2024-02-21T11:27:59;100814.69;;;15.81;100.00
72560;BME280;62987;52.382;9.752;2024-02-21T11:30:27;100810.38;;;16.07;97.59
72560;BME280;62987;52.382;9.752;2024-02-21T11:33:02;100814.22;;;15.14;100.00
72560;BME280;62987;52.382;9.752;2024-02-21T11:35:32;100812.94;;;15.06;100.00
72560;BME280;62987;52.382;9.752;2024-02-21T11:38:11;100802.59;;;15.44;100.00
72560;BME280;62987;52.382;9.752;2024-02-21T11:40:45;100802.22;;;14.60;100.00
72560;BME280;62987;52.382;9.752;2024-02-21T11:43:15;100790.66;;;15.35;100.00
72560;BME280;62987;52.382;9.752;2024-02-21T11:45:43;100786.28;;;14.89;100.00
72560;BME280;62987;52.382;9.752;2024-02-21T11:48:14;100784.09;;;15.25;100.00
72560;BME280;62987;52.382;9.752;2024-02-21T11:50:42;100782.16;;;14.83;100.00
72560;BME280;62987;52.382;9.752;2024-02-21T11:53:20;100778.63;;;14.04;100.00
72560;BME280;62987;52.382;9.752;2024-02-21T11:55:49;100770.06;;;13.97;100.00
72560;BME280;62987;52.382;9.752;2024-02-21T11:58:18;100763.03;;;14.12;100.00
72560;BME280;62987;52.382;9.752;2024-02-21T12:00:46;100762.81;;;13.84;100.00
72560;BME280;62987;52.382;9.752;2024-02-21T12:03:16;100755.56;;;14.01;100.00
72560;BME280;62987;52.382;9.752;2024-02-21T12:05:44;100753.09;;;13.98;100.00
72560;BME280;62987;52.382;9.752;2024-02-21T12:08:15;100743.06;;;13.86;100.00
72560;BME280;62987;52.382;9.752;2024-02-21T12:10:44;100730.00;;;14.74;100.00
72560;BME280;62987;52.382;9.752;2024-02-21T12:13:22;100730.56;;;14.50;100.00
72560;BME280;62987;52.382;9.752;2024-02-21T12:15:51;100733.50;;;13.98;100.00
72560;BME280;62987;52.382;9.752;2024-02-21T12:18:21;100723.88;;;14.72;100.00
72560;BME280;62987;52.382;9.752;2024-02-21T12:20:49;100720.91;;;14.16;100.00
72560;BME280;62987;52.382;9.752;2024-02-21T12:23:18;100720.38;;;14.40;100.00
72560;BME280;62987;52.382;9.752;2024-02-21T12:25:47;100717.09;;;13.88;100.00
72560;BME280;62987;52.382;9.752;2024-02-21T12:28:15;100721.56;;;14.35;100.00
72560;BME280;62987;52.382;9.752;2024-02-21T12:30:44;100714.16;;;14.56;100.00
72560;BME280;62987;52.382;9.752;2024-02-21T12:33:13;100712.78;;;14.64;100.00
72560;BME280;62987;52.382;9.752;2024-02-21T12:35:43;100708.22;;;14.80;100.00
72560;BME280;62987;52.382;9.752;2024-02-21T12:38:12;100692.75;;;15.72;97.33
72560;BME280;62987;52.382;9.752;2024-02-21T12:40:41;100700.66;;;15.45;95.07
72560;BME280;62987;52.382;9.752;2024-02-21T12:43:09;100707.84;;;14.87;96.02
72560;BME280;62987;52.382;9.752;2024-02-21T12:45:38;100704.88;;;14.91;96.41
72560;BME280;62987;52.382;9.752;2024-02-21T12:48:07;100710.72;;;14.98;98.43
72560;BME280;62987;52.382;9.752;2024-02-21T12:50:35;100690.63;;;14.76;97.98
72560;BME280;62987;52.382;9.752;2024-02-21T12:53:05;100698.19;;;15.28;95.97
72560;BME280;62987;52.382;9.752;2024-02-21T12:55:48;100702.34;;;14.74;97.93